Skip Navigation Links Skip Navigation Links

Current Weather

Central Park, New York

For information only: do not use for flight planning or navigation.
Latest weather
Observation time Tuesday, October 17, 2017 1:51 AM EDT
Local time Tuesday, October 17, 2017 2:04 AM EDT
Flight conditions Visual Meteorological Conditions
Winds
Wind direction variable
Wind speed 5 mph
Visibility 10 mi.
Sky condition
Ceiling unlimited
Sky clear
Temperature 46°F
Dewpoint 30°F
Altimeter 30.26 in.Hg
Pressure change last 3 hours-0.03 in.Hg
Pressure rising more quickly
Derived measurements
Relative humidity 53%
Wind chill 44°F
Density altitude -1008 ft.
Sea-level pressure 30.24 in.Hg
Climate data
Temperature minimum, last 6 hours 46°F
Temperature maximum, last 6 hours 53°F
Remarks
Fully automated report.
System requires maintenance.
Automated weather observing station with precipitation discriminator.
METAR KNYC 170551Z AUTO VRB04KT 10SM CLR 08/M01 A3026 RMK AO2 SLP240 T00781011 10117 20078 53011 $

Settings

Location code

InnerDrive.Weather 4.0.6144.1 Release CLR 4.0.30319.36366
Copyright ©2015 Inner Drive Technology. All rights reserved. Portions Copyright ©1986-2015 David Braverman.

Find weather

Site navigation


Skip Navigation Links

Place info

Page info

PayPal - The safer, easier way to pay online!

Return home.

Copyright ©2017 Inner Drive Technology. Purveyors of fine, hand-crafted computer software. Page printed 2017-10-17T06:04:59 UTC.